sensor_id;sensor_type;location;lat;lon;timestamp;temperature;humidity
10123;DHT22;5101;49.038;8.710;2023-08-20T00:01:20;23.40;99.90
10123;DHT22;5101;49.038;8.710;2023-08-20T00:03:48;23.40;99.90
10123;DHT22;5101;49.038;8.710;2023-08-20T00:06:13;23.40;99.90
10123;DHT22;5101;49.038;8.710;2023-08-20T00:08:39;23.40;99.90
10123;DHT22;5101;49.038;8.710;2023-08-20T00:11:05;23.40;99.90
10123;DHT22;5101;49.038;8.710;2023-08-20T00:13:31;23.40;99.90
10123;DHT22;5101;49.038;8.710;2023-08-20T00:15:56;23.30;99.90
10123;DHT22;5101;49.038;8.710;2023-08-20T00:18:22;23.30;99.90
10123;DHT22;5101;49.038;8.710;2023-08-20T00:20:48;23.30;99.90
10123;DHT22;5101;49.038;8.710;2023-08-20T00:23:14;23.20;99.90
10123;DHT22;5101;49.038;8.710;2023-08-20T00:25:40;23.20;99.90
10123;DHT22;5101;49.038;8.710;2023-08-20T00:28:06;23.20;99.90
10123;DHT22;5101;49.038;8.710;2023-08-20T00:30:31;23.20;99.90
10123;DHT22;5101;49.038;8.710;2023-08-20T00:32:56;23.20;99.90
10123;DHT22;5101;49.038;8.710;2023-08-20T00:35:22;23.20;99.90
10123;DHT22;5101;49.038;8.710;2023-08-20T00:37:47;23.10;99.90
10123;DHT22;5101;49.038;8.710;2023-08-20T00:40:13;23.10;99.90
10123;DHT22;5101;49.038;8.710;2023-08-20T00:42:39;23.10;99.90
10123;DHT22;5101;49.038;8.710;2023-08-20T00:45:05;23.10;99.90
10123;DHT22;5101;49.038;8.710;2023-08-20T00:47:31;23.10;99.90
10123;DHT22;5101;49.038;8.710;2023-08-20T00:49:57;23.00;99.90
10123;DHT22;5101;49.038;8.710;2023-08-20T00:52:22;23.10;99.90
10123;DHT22;5101;49.038;8.710;2023-08-20T00:54:49;23.00;99.90
10123;DHT22;5101;49.038;8.710;2023-08-20T00:57:17;23.00;99.90
10123;DHT22;5101;49.038;8.710;2023-08-20T00:59:45;23.00;99.90
10123;DHT22;5101;49.038;8.710;2023-08-20T01:02:12;23.00;99.90
10123;DHT22;5101;49.038;8.710;2023-08-20T01:04:38;22.90;99.90
10123;DHT22;5101;49.038;8.710;2023-08-20T01:09:50;22.90;99.90
10123;DHT22;5101;49.038;8.710;2023-08-20T01:12:20;22.90;99.90
10123;DHT22;5101;49.038;8.710;2023-08-20T01:14:46;22.80;99.90
10123;DHT22;5101;49.038;8.710;2023-08-20T01:17:12;22.80;99.90
10123;DHT22;5101;49.038;8.710;2023-08-20T01:19:37;22.70;99.90
10123;DHT22;5101;49.038;8.710;2023-08-20T01:22:52;22.70;99.90
10123;DHT22;5101;49.038;8.710;2023-08-20T01:25:44;22.70;99.90
10123;DHT22;5101;49.038;8.710;2023-08-20T01:28:28;22.70;99.90
10123;DHT22;5101;49.038;8.710;2023-08-20T01:30:56;22.70;99.90
10123;DHT22;5101;49.038;8.710;2023-08-20T01:33:22;22.60;99.90
10123;DHT22;5101;49.038;8.710;2023-08-20T01:35:50;22.60;99.90
10123;DHT22;5101;49.038;8.710;2023-08-20T01:38:15;22.60;99.90
10123;DHT22;5101;49.038;8.710;2023-08-20T01:40:41;22.60;99.90
10123;DHT22;5101;49.038;8.710;2023-08-20T01:43:06;22.50;99.90
10123;DHT22;5101;49.038;8.710;2023-08-20T01:45:32;22.60;99.90
10123;DHT22;5101;49.038;8.710;2023-08-20T01:47:58;22.50;99.90
10123;DHT22;5101;49.038;8.710;2023-08-20T01:50:23;22.50;99.90
10123;DHT22;5101;49.038;8.710;2023-08-20T01:52:49;22.50;99.90
10123;DHT22;5101;49.038;8.710;2023-08-20T01:55:14;22.50;99.90
10123;DHT22;5101;49.038;8.710;2023-08-20T01:57:40;22.50;99.90
10123;DHT22;5101;49.038;8.710;2023-08-20T02:00:06;22.50;99.90
10123;DHT22;5101;49.038;8.710;2023-08-20T02:02:32;22.40;99.90
10123;DHT22;5101;49.038;8.710;2023-08-20T02:04:58;22.40;99.90
10123;DHT22;5101;49.038;8.710;2023-08-20T02:07:23;22.40;99.90
10123;DHT22;5101;49.038;8.710;2023-08-20T02:09:49;22.30;99.90
10123;DHT22;5101;49.038;8.710;2023-08-20T02:12:14;22.30;99.90
10123;DHT22;5101;49.038;8.710;2023-08-20T02:14:40;22.30;99.90
10123;DHT22;5101;49.038;8.710;2023-08-20T02:17:06;22.30;99.90
10123;DHT22;5101;49.038;8.710;2023-08-20T02:19:32;22.30;99.90
10123;DHT22;5101;49.038;8.710;2023-08-20T02:21:58;22.30;99.90
10123;DHT22;5101;49.038;8.710;2023-08-20T02:24:23;22.20;99.90
10123;DHT22;5101;49.038;8.710;2023-08-20T02:26:49;22.20;99.90
10123;DHT22;5101;49.038;8.710;2023-08-20T02:29:15;22.20;99.90
10123;DHT22;5101;49.038;8.710;2023-08-20T02:31:40;22.20;99.90
10123;DHT22;5101;49.038;8.710;2023-08-20T02:34:06;22.20;99.90
10123;DHT22;5101;49.038;8.710;2023-08-20T02:36:31;22.10;99.90
10123;DHT22;5101;49.038;8.710;2023-08-20T02:38:57;22.10;99.90
10123;DHT22;5101;49.038;8.710;2023-08-20T02:41:22;22.00;99.90
10123;DHT22;5101;49.038;8.710;2023-08-20T02:43:48;22.00;99.90
10123;DHT22;5101;49.038;8.710;2023-08-20T02:46:14;22.00;99.90
10123;DHT22;5101;49.038;8.710;2023-08-20T02:48:40;21.90;99.90
10123;DHT22;5101;49.038;8.710;2023-08-20T02:51:05;21.90;99.90
10123;DHT22;5101;49.038;8.710;2023-08-20T02:53:31;21.90;99.90
10123;DHT22;5101;49.038;8.710;2023-08-20T02:55:56;21.90;99.90
10123;DHT22;5101;49.038;8.710;2023-08-20T02:58:22;21.90;99.90
10123;DHT22;5101;49.038;8.710;2023-08-20T03:00:48;21.90;99.90
10123;DHT22;5101;49.038;8.710;2023-08-20T03:03:13;21.80;99.90
10123;DHT22;5101;49.038;8.710;2023-08-20T03:05:39;21.80;99.90
10123;DHT22;5101;49.038;8.710;2023-08-20T03:08:06;21.80;99.90
10123;DHT22;5101;49.038;8.710;2023-08-20T03:10:32;21.80;99.90
10123;DHT22;5101;49.038;8.710;2023-08-20T03:12:59;21.70;99.90
10123;DHT22;5101;49.038;8.710;2023-08-20T03:15:24;21.70;99.90
10123;DHT22;5101;49.038;8.710;2023-08-20T03:17:50;21.70;99.90
10123;DHT22;5101;49.038;8.710;2023-08-20T03:20:15;21.70;99.90
10123;DHT22;5101;49.038;8.710;2023-08-20T03:22:41;21.70;99.90
10123;DHT22;5101;49.038;8.710;2023-08-20T03:25:06;21.70;99.90
10123;DHT22;5101;49.038;8.710;2023-08-20T03:27:32;21.70;99.90
10123;DHT22;5101;49.038;8.710;2023-08-20T03:29:58;21.60;99.90
10123;DHT22;5101;49.038;8.710;2023-08-20T03:32:24;21.60;99.90
10123;DHT22;5101;49.038;8.710;2023-08-20T03:34:50;21.60;99.90
10123;DHT22;5101;49.038;8.710;2023-08-20T03:37:15;21.60;99.90
10123;DHT22;5101;49.038;8.710;2023-08-20T03:39:41;21.60;99.90
10123;DHT22;5101;49.038;8.710;2023-08-20T03:42:07;21.50;99.90
10123;DHT22;5101;49.038;8.710;2023-08-20T03:44:32;21.50;99.90
10123;DHT22;5101;49.038;8.710;2023-08-20T03:46:58;21.50;99.90
10123;DHT22;5101;49.038;8.710;2023-08-20T03:49:23;21.50;99.90
10123;DHT22;5101;49.038;8.710;2023-08-20T03:51:49;21.50;99.90
10123;DHT22;5101;49.038;8.710;2023-08-20T03:54:14;21.50;99.90
10123;DHT22;5101;49.038;8.710;2023-08-20T03:56:40;21.50;99.90
10123;DHT22;5101;49.038;8.710;2023-08-20T03:59:06;21.40;99.90
10123;DHT22;5101;49.038;8.710;2023-08-20T04:01:31;21.40;99.90
10123;DHT22;5101;49.038;8.710;2023-08-20T04:03:57;21.40;99.90
10123;DHT22;5101;49.038;8.710;2023-08-20T04:06:23;21.40;99.90
10123;DHT22;5101;49.038;8.710;2023-08-20T04:08:48;21.40;99.90
10123;DHT22;5101;49.038;8.710;2023-08-20T04:11:14;21.30;99.90
10123;DHT22;5101;49.038;8.710;2023-08-20T04:13:39;21.30;99.90
10123;DHT22;5101;49.038;8.710;2023-08-20T04:16:08;21.30;99.90
10123;DHT22;5101;49.038;8.710;2023-08-20T04:18:33;21.30;99.90
10123;DHT22;5101;49.038;8.710;2023-08-20T04:20:59;21.30;99.90
10123;DHT22;5101;49.038;8.710;2023-08-20T04:23:24;21.30;99.90
10123;DHT22;5101;49.038;8.710;2023-08-20T04:25:50;21.30;99.90
10123;DHT22;5101;49.038;8.710;2023-08-20T04:28:16;21.30;99.90
10123;DHT22;5101;49.038;8.710;2023-08-20T04:30:41;21.30;99.90
10123;DHT22;5101;49.038;8.710;2023-08-20T04:33:07;21.30;99.90
10123;DHT22;5101;49.038;8.710;2023-08-20T04:35:33;21.30;99.90
10123;DHT22;5101;49.038;8.710;2023-08-20T04:37:59;21.30;99.90
10123;DHT22;5101;49.038;8.710;2023-08-20T04:40:24;21.20;99.90
10123;DHT22;5101;49.038;8.710;2023-08-20T04:42:51;21.20;99.90
10123;DHT22;5101;49.038;8.710;2023-08-20T04:45:16;21.20;99.90
10123;DHT22;5101;49.038;8.710;2023-08-20T04:47:45;21.20;99.90
10123;DHT22;5101;49.038;8.710;2023-08-20T04:50:10;21.20;99.90
10123;DHT22;5101;49.038;8.710;2023-08-20T04:52:36;21.20;99.90
10123;DHT22;5101;49.038;8.710;2023-08-20T04:55:02;21.20;99.90
10123;DHT22;5101;49.038;8.710;2023-08-20T04:57:27;21.20;99.90
10123;DHT22;5101;49.038;8.710;2023-08-20T04:59:53;21.20;99.90
10123;DHT22;5101;49.038;8.710;2023-08-20T05:02:19;21.20;99.90
10123;DHT22;5101;49.038;8.710;2023-08-20T05:04:44;21.20;99.90
10123;DHT22;5101;49.038;8.710;2023-08-20T05:07:10;21.20;99.90
10123;DHT22;5101;49.038;8.710;2023-08-20T05:09:35;21.20;99.90
10123;DHT22;5101;49.038;8.710;2023-08-20T05:12:01;21.20;99.90
10123;DHT22;5101;49.038;8.710;2023-08-20T05:14:28;21.20;99.90
10123;DHT22;5101;49.038;8.710;2023-08-20T05:16:54;21.30;99.90
10123;DHT22;5101;49.038;8.710;2023-08-20T05:19:19;21.30;99.90
10123;DHT22;5101;49.038;8.710;2023-08-20T05:21:44;21.40;99.90
10123;DHT22;5101;49.038;8.710;2023-08-20T05:24:10;21.40;99.90
10123;DHT22;5101;49.038;8.710;2023-08-20T05:26:35;21.40;99.90
10123;DHT22;5101;49.038;8.710;2023-08-20T05:29:01;21.50;99.90
10123;DHT22;5101;49.038;8.710;2023-08-20T05:31:26;21.50;99.90
10123;DHT22;5101;49.038;8.710;2023-08-20T05:33:52;21.50;99.90
10123;DHT22;5101;49.038;8.710;2023-08-20T05:36:17;21.60;99.90
10123;DHT22;5101;49.038;8.710;2023-08-20T05:38:43;21.60;99.90
10123;DHT22;5101;49.038;8.710;2023-08-20T05:41:09;21.70;99.90
10123;DHT22;5101;49.038;8.710;2023-08-20T05:43:34;21.70;99.90
10123;DHT22;5101;49.038;8.710;2023-08-20T05:46:04;21.80;99.90
10123;DHT22;5101;49.038;8.710;2023-08-20T05:48:30;21.80;99.90
10123;DHT22;5101;49.038;8.710;2023-08-20T05:50:56;21.80;99.90
10123;DHT22;5101;49.038;8.710;2023-08-20T05:53:24;21.90;99.90
10123;DHT22;5101;49.038;8.710;2023-08-20T05:55:50;21.90;99.90
10123;DHT22;5101;49.038;8.710;2023-08-20T05:58:15;22.00;99.90
10123;DHT22;5101;49.038;8.710;2023-08-20T06:00:41;22.00;99.90
10123;DHT22;5101;49.038;8.710;2023-08-20T06:03:07;22.10;99.90
10123;DHT22;5101;49.038;8.710;2023-08-20T06:05:33;22.20;99.90
10123;DHT22;5101;49.038;8.710;2023-08-20T06:07:59;22.30;99.90
10123;DHT22;5101;49.038;8.710;2023-08-20T06:10:24;22.30;99.90
10123;DHT22;5101;49.038;8.710;2023-08-20T06:12:50;22.30;99.90
10123;DHT22;5101;49.038;8.710;2023-08-20T06:15:15;22.40;99.90
10123;DHT22;5101;49.038;8.710;2023-08-20T06:17:41;22.50;99.90
10123;DHT22;5101;49.038;8.710;2023-08-20T06:20:06;22.60;99.90
10123;DHT22;5101;49.038;8.710;2023-08-20T06:22:33;22.70;99.90
10123;DHT22;5101;49.038;8.710;2023-08-20T06:24:59;22.70;99.90
10123;DHT22;5101;49.038;8.710;2023-08-20T06:27:25;22.80;99.90
10123;DHT22;5101;49.038;8.710;2023-08-20T06:29:50;22.90;99.90
10123;DHT22;5101;49.038;8.710;2023-08-20T06:32:16;23.00;99.90
10123;DHT22;5101;49.038;8.710;2023-08-20T06:34:41;23.10;99.90
10123;DHT22;5101;49.038;8.710;2023-08-20T06:37:07;23.20;99.90
10123;DHT22;5101;49.038;8.710;2023-08-20T06:39:32;23.40;99.90
10123;DHT22;5101;49.038;8.710;2023-08-20T06:41:57;23.60;99.90
10123;DHT22;5101;49.038;8.710;2023-08-20T06:44:23;23.80;99.90
10123;DHT22;5101;49.038;8.710;2023-08-20T06:46:49;24.10;99.90
10123;DHT22;5101;49.038;8.710;2023-08-20T06:49:14;24.30;99.90
10123;DHT22;5101;49.038;8.710;2023-08-20T06:51:40;24.50;99.90
10123;DHT22;5101;49.038;8.710;2023-08-20T06:54:05;24.70;99.90
10123;DHT22;5101;49.038;8.710;2023-08-20T06:56:32;24.90;99.90
10123;DHT22;5101;49.038;8.710;2023-08-20T06:58:57;25.00;99.90
10123;DHT22;5101;49.038;8.710;2023-08-20T07:01:23;25.10;99.90
10123;DHT22;5101;49.038;8.710;2023-08-20T07:03:48;25.30;99.90
10123;DHT22;5101;49.038;8.710;2023-08-20T07:06:14;25.40;99.90
10123;DHT22;5101;49.038;8.710;2023-08-20T07:08:41;25.70;99.90
10123;DHT22;5101;49.038;8.710;2023-08-20T07:11:07;26.00;99.90
10123;DHT22;5101;49.038;8.710;2023-08-20T07:13:33;26.20;99.90
10123;DHT22;5101;49.038;8.710;2023-08-20T07:15:58;26.40;99.90
10123;DHT22;5101;49.038;8.710;2023-08-20T07:18:24;26.80;99.90
10123;DHT22;5101;49.038;8.710;2023-08-20T07:20:50;27.00;99.90
10123;DHT22;5101;49.038;8.710;2023-08-20T07:23:16;27.20;99.90
10123;DHT22;5101;49.038;8.710;2023-08-20T07:25:42;27.40;99.40
10123;DHT22;5101;49.038;8.710;2023-08-20T07:28:08;27.60;98.80
10123;DHT22;5101;49.038;8.710;2023-08-20T07:30:34;27.80;98.40
10123;DHT22;5101;49.038;8.710;2023-08-20T07:33:00;27.90;98.10
10123;DHT22;5101;49.038;8.710;2023-08-20T07:35:26;28.10;97.80
10123;DHT22;5101;49.038;8.710;2023-08-20T07:37:52;28.20;97.40
10123;DHT22;5101;49.038;8.710;2023-08-20T07:40:18;28.30;97.10
10123;DHT22;5101;49.038;8.710;2023-08-20T07:42:44;28.50;96.90
10123;DHT22;5101;49.038;8.710;2023-08-20T07:45:09;28.70;96.40
10123;DHT22;5101;49.038;8.710;2023-08-20T07:47:36;28.80;95.90
10123;DHT22;5101;49.038;8.710;2023-08-20T07:50:03;28.90;95.10
10123;DHT22;5101;49.038;8.710;2023-08-20T07:52:28;29.10;94.90
10123;DHT22;5101;49.038;8.710;2023-08-20T07:54:54;29.40;94.50
10123;DHT22;5101;49.038;8.710;2023-08-20T07:57:20;29.50;94.30
10123;DHT22;5101;49.038;8.710;2023-08-20T07:59:45;29.70;94.00
10123;DHT22;5101;49.038;8.710;2023-08-20T08:02:10;29.80;93.30
10123;DHT22;5101;49.038;8.710;2023-08-20T08:04:36;29.90;92.90
10123;DHT22;5101;49.038;8.710;2023-08-20T08:07:02;30.10;92.40
10123;DHT22;5101;49.038;8.710;2023-08-20T08:09:30;30.20;92.00
10123;DHT22;5101;49.038;8.710;2023-08-20T08:11:56;30.40;91.60
10123;DHT22;5101;49.038;8.710;2023-08-20T08:14:22;30.50;91.30
10123;DHT22;5101;49.038;8.710;2023-08-20T08:16:48;30.60;90.90
10123;DHT22;5101;49.038;8.710;2023-08-20T08:19:14;30.80;90.40
10123;DHT22;5101;49.038;8.710;2023-08-20T08:21:40;30.90;90.20
10123;DHT22;5101;49.038;8.710;2023-08-20T08:24:06;31.10;90.10
10123;DHT22;5101;49.038;8.710;2023-08-20T08:26:33;31.30;90.00
10123;DHT22;5101;49.038;8.710;2023-08-20T08:28:59;31.40;88.20
10123;DHT22;5101;49.038;8.710;2023-08-20T08:31:25;31.50;88.30
10123;DHT22;5101;49.038;8.710;2023-08-20T08:33:51;31.50;88.20
10123;DHT22;5101;49.038;8.710;2023-08-20T08:36:16;31.50;88.00
10123;DHT22;5101;49.038;8.710;2023-08-20T08:38:45;31.50;87.30
10123;DHT22;5101;49.038;8.710;2023-08-20T08:41:12;31.40;86.30
10123;DHT22;5101;49.038;8.710;2023-08-20T08:43:38;31.30;86.80
10123;DHT22;5101;49.038;8.710;2023-08-20T08:46:12;31.30;87.60
10123;DHT22;5101;49.038;8.710;2023-08-20T08:48:40;31.40;87.80
10123;DHT22;5101;49.038;8.710;2023-08-20T08:51:06;31.40;87.10
10123;DHT22;5101;49.038;8.710;2023-08-20T08:53:32;31.40;86.50
10123;DHT22;5101;49.038;8.710;2023-08-20T08:55:58;31.50;85.90
10123;DHT22;5101;49.038;8.710;2023-08-20T08:58:24;31.60;86.70
10123;DHT22;5101;49.038;8.710;2023-08-20T09:00:50;31.60;86.40
10123;DHT22;5101;49.038;8.710;2023-08-20T09:03:15;31.70;86.00
10123;DHT22;5101;49.038;8.710;2023-08-20T09:05:55;31.80;86.10
10123;DHT22;5101;49.038;8.710;2023-08-20T09:08:29;31.80;86.20
10123;DHT22;5101;49.038;8.710;2023-08-20T09:10:57;31.80;87.00
10123;DHT22;5101;49.038;8.710;2023-08-20T09:13:37;31.90;86.20
10123;DHT22;5101;49.038;8.710;2023-08-20T09:16:07;32.00;85.90
10123;DHT22;5101;49.038;8.710;2023-08-20T09:18:44;32.10;85.40
10123;DHT22;5101;49.038;8.710;2023-08-20T09:21:11;32.20;85.80
10123;DHT22;5101;49.038;8.710;2023-08-20T09:23:38;32.20;84.90
10123;DHT22;5101;49.038;8.710;2023-08-20T09:26:04;32.30;84.70
10123;DHT22;5101;49.038;8.710;2023-08-20T09:28:41;32.40;85.20
10123;DHT22;5101;49.038;8.710;2023-08-20T09:31:07;32.60;85.30
10123;DHT22;5101;49.038;8.710;2023-08-20T09:33:32;32.60;83.50
10123;DHT22;5101;49.038;8.710;2023-08-20T09:35:58;32.60;82.20
10123;DHT22;5101;49.038;8.710;2023-08-20T09:38:24;32.60;81.80
10123;DHT22;5101;49.038;8.710;2023-08-20T09:40:53;32.60;81.40
10123;DHT22;5101;49.038;8.710;2023-08-20T09:43:23;32.70;81.00
10123;DHT22;5101;49.038;8.710;2023-08-20T09:45:54;32.90;80.90
10123;DHT22;5101;49.038;8.710;2023-08-20T09:48:21;32.80;80.80
10123;DHT22;5101;49.038;8.710;2023-08-20T09:50:48;32.70;80.50
10123;DHT22;5101;49.038;8.710;2023-08-20T09:56:07;32.50;79.30
10123;DHT22;5101;49.038;8.710;2023-08-20T09:58:35;32.60;79.10
10123;DHT22;5101;49.038;8.710;2023-08-20T10:01:02;32.70;79.40
10123;DHT22;5101;49.038;8.710;2023-08-20T10:03:28;32.80;77.90
10123;DHT22;5101;49.038;8.710;2023-08-20T10:05:55;32.80;75.90
10123;DHT22;5101;49.038;8.710;2023-08-20T10:08:22;32.90;75.50
10123;DHT22;5101;49.038;8.710;2023-08-20T10:10:47;33.00;76.20
10123;DHT22;5101;49.038;8.710;2023-08-20T10:13:13;33.10;74.20
10123;DHT22;5101;49.038;8.710;2023-08-20T10:15:39;33.00;72.00
10123;DHT22;5101;49.038;8.710;2023-08-20T10:18:07;33.00;72.70
10123;DHT22;5101;49.038;8.710;2023-08-20T10:20:33;33.10;73.40
10123;DHT22;5101;49.038;8.710;2023-08-20T10:23:03;33.10;72.60
10123;DHT22;5101;49.038;8.710;2023-08-20T10:25:29;33.20;72.20
10123;DHT22;5101;49.038;8.710;2023-08-20T10:28:11;33.30;71.70
10123;DHT22;5101;49.038;8.710;2023-08-20T10:30:37;33.40;70.60
10123;DHT22;5101;49.038;8.710;2023-08-20T10:33:03;33.50;70.80
10123;DHT22;5101;49.038;8.710;2023-08-20T10:35:47;33.60;71.30
10123;DHT22;5101;49.038;8.710;2023-08-20T10:38:14;33.60;70.60
10123;DHT22;5101;49.038;8.710;2023-08-20T10:40:55;33.60;70.60
10123;DHT22;5101;49.038;8.710;2023-08-20T10:43:32;33.70;69.60
10123;DHT22;5101;49.038;8.710;2023-08-20T10:46:08;33.70;68.50
10123;DHT22;5101;49.038;8.710;2023-08-20T10:48:39;33.70;69.80
10123;DHT22;5101;49.038;8.710;2023-08-20T10:51:16;33.70;69.20
10123;DHT22;5101;49.038;8.710;2023-08-20T10:59:23;33.90;69.90
10123;DHT22;5101;49.038;8.710;2023-08-20T11:01:55;34.00;67.90
10123;DHT22;5101;49.038;8.710;2023-08-20T11:04:24;34.00;67.50
10123;DHT22;5101;49.038;8.710;2023-08-20T11:06:59;34.10;66.50
10123;DHT22;5101;49.038;8.710;2023-08-20T11:09:29;34.10;66.00
10123;DHT22;5101;49.038;8.710;2023-08-20T11:11:56;34.20;66.30
10123;DHT22;5101;49.038;8.710;2023-08-20T11:14:22;34.20;66.00
10123;DHT22;5101;49.038;8.710;2023-08-20T11:16:48;34.30;65.20
10123;DHT22;5101;49.038;8.710;2023-08-20T11:19:20;34.20;63.60
10123;DHT22;5101;49.038;8.710;2023-08-20T11:21:46;34.20;64.50
10123;DHT22;5101;49.038;8.710;2023-08-20T11:24:12;34.40;64.90
10123;DHT22;5101;49.038;8.710;2023-08-20T11:26:42;34.50;64.10
10123;DHT22;5101;49.038;8.710;2023-08-20T11:29:09;34.50;63.20
10123;DHT22;5101;49.038;8.710;2023-08-20T11:31:38;34.30;62.20
10123;DHT22;5101;49.038;8.710;2023-08-20T11:34:04;34.30;61.30
10123;DHT22;5101;49.038;8.710;2023-08-20T11:36:30;34.20;61.20
10123;DHT22;5101;49.038;8.710;2023-08-20T11:38:56;34.20;61.10
10123;DHT22;5101;49.038;8.710;2023-08-20T11:41:23;34.40;62.00
10123;DHT22;5101;49.038;8.710;2023-08-20T11:43:50;34.40;62.90
10123;DHT22;5101;49.038;8.710;2023-08-20T11:46:18;34.50;61.30
10123;DHT22;5101;49.038;8.710;2023-08-20T11:49:03;34.60;60.80
10123;DHT22;5101;49.038;8.710;2023-08-20T11:51:30;34.70;61.00
10123;DHT22;5101;49.038;8.710;2023-08-20T11:53:57;34.70;60.60
10123;DHT22;5101;49.038;8.710;2023-08-20T11:56:22;34.70;58.60
10123;DHT22;5101;49.038;8.710;2023-08-20T11:58:51;34.60;58.20
10123;DHT22;5101;49.038;8.710;2023-08-20T12:01:18;34.70;59.30
10123;DHT22;5101;49.038;8.710;2023-08-20T12:03:44;34.60;59.20
10123;DHT22;5101;49.038;8.710;2023-08-20T12:06:20;34.60;58.20
10123;DHT22;5101;49.038;8.710;2023-08-20T12:08:46;34.60;58.50
10123;DHT22;5101;49.038;8.710;2023-08-20T12:11:12;34.60;56.50
10123;DHT22;5101;49.038;8.710;2023-08-20T12:13:38;34.60;58.00
10123;DHT22;5101;49.038;8.710;2023-08-20T12:16:03;34.60;58.60
10123;DHT22;5101;49.038;8.710;2023-08-20T12:18:29;34.70;57.50
10123;DHT22;5101;49.038;8.710;2023-08-20T12:20:55;34.80;57.90
10123;DHT22;5101;49.038;8.710;2023-08-20T12:23:21;34.80;55.40
10123;DHT22;5101;49.038;8.710;2023-08-20T12:25:50;34.80;55.00
10123;DHT22;5101;49.038;8.710;2023-08-20T12:28:15;34.80;53.90
10123;DHT22;5101;49.038;8.710;2023-08-20T12:30:41;34.80;55.00
10123;DHT22;5101;49.038;8.710;2023-08-20T12:33:07;35.00;55.70
10123;DHT22;5101;49.038;8.710;2023-08-20T12:35:32;35.00;54.50
10123;DHT22;5101;49.038;8.710;2023-08-20T12:37:58;34.80;54.80
10123;DHT22;5101;49.038;8.710;2023-08-20T12:40:23;34.70;55.10
10123;DHT22;5101;49.038;8.710;2023-08-20T12:42:49;34.60;54.10
10123;DHT22;5101;49.038;8.710;2023-08-20T12:45:14;34.70;55.80
10123;DHT22;5101;49.038;8.710;2023-08-20T12:47:40;34.80;54.90
10123;DHT22;5101;49.038;8.710;2023-08-20T12:50:06;34.90;54.90
10123;DHT22;5101;49.038;8.710;2023-08-20T12:52:32;34.80;53.70
10123;DHT22;5101;49.038;8.710;2023-08-20T12:54:58;34.80;54.10
10123;DHT22;5101;49.038;8.710;2023-08-20T12:57:24;34.80;54.90
10123;DHT22;5101;49.038;8.710;2023-08-20T12:59:49;34.90;56.20
10123;DHT22;5101;49.038;8.710;2023-08-20T13:02:15;34.90;55.20
10123;DHT22;5101;49.038;8.710;2023-08-20T13:04:41;34.80;53.90
10123;DHT22;5101;49.038;8.710;2023-08-20T13:07:07;34.80;53.80
10123;DHT22;5101;49.038;8.710;2023-08-20T13:09:33;34.90;53.40
10123;DHT22;5101;49.038;8.710;2023-08-20T13:12:00;34.90;53.10
10123;DHT22;5101;49.038;8.710;2023-08-20T13:14:27;35.00;54.20
10123;DHT22;5101;49.038;8.710;2023-08-20T13:16:53;35.00;54.90
10123;DHT22;5101;49.038;8.710;2023-08-20T13:19:18;35.00;54.10
10123;DHT22;5101;49.038;8.710;2023-08-20T13:21:44;34.80;54.20
10123;DHT22;5101;49.038;8.710;2023-08-20T13:24:09;34.80;53.70
10123;DHT22;5101;49.038;8.710;2023-08-20T13:26:35;34.60;53.40
10123;DHT22;5101;49.038;8.710;2023-08-20T13:29:00;34.50;54.30
10123;DHT22;5101;49.038;8.710;2023-08-20T13:31:26;34.60;53.60
10123;DHT22;5101;49.038;8.710;2023-08-20T13:33:51;34.70;54.70
10123;DHT22;5101;49.038;8.710;2023-08-20T13:36:17;34.80;53.90
10123;DHT22;5101;49.038;8.710;2023-08-20T13:38:42;34.80;52.80
10123;DHT22;5101;49.038;8.710;2023-08-20T13:41:08;34.80;54.70
10123;DHT22;5101;49.038;8.710;2023-08-20T13:43:34;34.80;55.50
10123;DHT22;5101;49.038;8.710;2023-08-20T13:46:00;34.70;53.20
10123;DHT22;5101;49.038;8.710;2023-08-20T13:48:26;34.50;53.20
10123;DHT22;5101;49.038;8.710;2023-08-20T13:50:51;34.40;53.30
10123;DHT22;5101;49.038;8.710;2023-08-20T13:53:17;34.50;52.60
10123;DHT22;5101;49.038;8.710;2023-08-20T13:55:42;34.40;52.80
10123;DHT22;5101;49.038;8.710;2023-08-20T13:58:08;34.40;55.80
10123;DHT22;5101;49.038;8.710;2023-08-20T14:00:33;34.50;56.60
10123;DHT22;5101;49.038;8.710;2023-08-20T14:02:59;34.50;56.40
10123;DHT22;5101;49.038;8.710;2023-08-20T14:05:24;34.50;57.70
10123;DHT22;5101;49.038;8.710;2023-08-20T14:07:50;34.40;57.50
10123;DHT22;5101;49.038;8.710;2023-08-20T14:10:16;34.30;57.30
10123;DHT22;5101;49.038;8.710;2023-08-20T14:12:41;34.30;57.30
10123;DHT22;5101;49.038;8.710;2023-08-20T14:15:08;34.30;57.90
10123;DHT22;5101;49.038;8.710;2023-08-20T14:17:34;34.30;58.40
10123;DHT22;5101;49.038;8.710;2023-08-20T14:19:59;34.30;58.20
10123;DHT22;5101;49.038;8.710;2023-08-20T14:22:25;34.30;59.30
10123;DHT22;5101;49.038;8.710;2023-08-20T14:24:51;34.40;60.00
10123;DHT22;5101;49.038;8.710;2023-08-20T14:27:16;34.30;59.20
10123;DHT22;5101;49.038;8.710;2023-08-20T14:29:42;34.40;58.10
10123;DHT22;5101;49.038;8.710;2023-08-20T14:32:07;34.30;56.90
10123;DHT22;5101;49.038;8.710;2023-08-20T14:34:33;34.30;57.20
10123;DHT22;5101;49.038;8.710;2023-08-20T14:36:58;34.20;57.60
10123;DHT22;5101;49.038;8.710;2023-08-20T14:39:24;34.10;57.50
10123;DHT22;5101;49.038;8.710;2023-08-20T14:41:49;34.20;58.00
10123;DHT22;5101;49.038;8.710;2023-08-20T14:44:15;34.10;58.50
10123;DHT22;5101;49.038;8.710;2023-08-20T14:46:41;34.10;58.40
10123;DHT22;5101;49.038;8.710;2023-08-20T14:49:06;34.10;57.20
10123;DHT22;5101;49.038;8.710;2023-08-20T14:51:32;33.90;57.50
10123;DHT22;5101;49.038;8.710;2023-08-20T14:53:57;34.00;57.30
10123;DHT22;5101;49.038;8.710;2023-08-20T14:56:23;34.00;58.50
10123;DHT22;5101;49.038;8.710;2023-08-20T14:58:49;33.90;57.50
10123;DHT22;5101;49.038;8.710;2023-08-20T15:01:14;33.90;58.30
10123;DHT22;5101;49.038;8.710;2023-08-20T15:03:40;33.80;58.80
10123;DHT22;5101;49.038;8.710;2023-08-20T15:06:05;33.80;57.40
10123;DHT22;5101;49.038;8.710;2023-08-20T15:08:31;33.80;57.50
10123;DHT22;5101;49.038;8.710;2023-08-20T15:10:58;33.70;57.20
10123;DHT22;5101;49.038;8.710;2023-08-20T15:13:24;33.70;57.10
10123;DHT22;5101;49.038;8.710;2023-08-20T15:15:53;33.70;56.50
10123;DHT22;5101;49.038;8.710;2023-08-20T15:18:20;33.60;55.50
10123;DHT22;5101;49.038;8.710;2023-08-20T15:20:45;33.60;54.00
10123;DHT22;5101;49.038;8.710;2023-08-20T15:23:11;33.60;54.00
10123;DHT22;5101;49.038;8.710;2023-08-20T15:25:36;33.50;54.40
10123;DHT22;5101;49.038;8.710;2023-08-20T15:28:02;33.50;54.60
10123;DHT22;5101;49.038;8.710;2023-08-20T15:30:29;33.50;53.20
10123;DHT22;5101;49.038;8.710;2023-08-20T15:32:54;33.50;52.00
10123;DHT22;5101;49.038;8.710;2023-08-20T15:35:20;33.50;52.40
10123;DHT22;5101;49.038;8.710;2023-08-20T15:37:45;33.60;50.60
10123;DHT22;5101;49.038;8.710;2023-08-20T15:40:11;33.50;51.60
10123;DHT22;5101;49.038;8.710;2023-08-20T15:42:38;33.40;51.40
10123;DHT22;5101;49.038;8.710;2023-08-20T15:45:03;33.40;51.50
10123;DHT22;5101;49.038;8.710;2023-08-20T15:47:29;33.30;52.40
10123;DHT22;5101;49.038;8.710;2023-08-20T15:49:55;33.30;54.20
10123;DHT22;5101;49.038;8.710;2023-08-20T15:52:21;33.20;54.70